Time;durP1;ratioP1;P1;durP2;ratioP2;P2;SDS_P1;SDS_P2;PMS_P1;PMS_P2;Temp;Humidity;BMP_temperature;BMP_pressure;BME280_temperature;BME280_humidity;BME280_pressure;Samples;Min_cycle;Max_cycle;Signal;HPM_P1;HPM_P2
2023/08/05 00:02:19;;;;;;;4.32;3.90;;;;;;;;;;5073329;28;20035;-58
2023/08/05 00:04:45;;;;;;;4.00;2.88;;;;;;;;;;5074206;28;20099;-59
2023/08/05 00:07:11;;;;;;;3.55;2.70;;;;;;;;;;5073791;28;20024;-58
2023/08/05 00:09:37;;;;;;;5.05;3.58;;;;;;;;;;5074155;28;20017;-58
2023/08/05 00:12:06;;;;;;;4.00;3.00;;;;;;;;;;5073520;28;20032;-58
2023/08/05 00:14:37;;;;;;;4.72;3.45;;;;;;;;;;5073523;28;20020;-58
2023/08/05 00:17:03;;;;;;;5.57;4.07;;;;;;;;;;5073242;28;20351;-58
2023/08/05 00:19:29;;;;;;;4.55;3.70;;;;;;;;;;5073825;28;20021;-59
2023/08/05 00:21:55;;;;;;;4.55;3.20;;;;;;;;;;5073426;28;20023;-58
2023/08/05 00:24:21;;;;;;;4.43;3.40;;;;;;;;;;5073374;28;20021;-58
2023/08/05 00:26:47;;;;;;;4.40;3.28;;;;;;;;;;5073330;28;20348;-58
2023/08/05 00:29:13;;;;;;;4.47;3.33;;;;;;;;;;5074260;28;20389;-58
2023/08/05 00:31:39;;;;;;;3.80;2.90;;;;;;;;;;5073798;28;20078;-58
2023/08/05 00:34:05;;;;;;;6.43;3.70;;;;;;;;;;5073026;28;20071;-58
2023/08/05 00:36:31;;;;;;;4.05;3.22;;;;;;;;;;5073267;28;20052;-58
2023/08/05 00:38:57;;;;;;;5.55;3.65;;;;;;;;;;5073232;28;20031;-58
2023/08/05 00:41:23;;;;;;;7.47;3.88;;;;;;;;;;5073255;28;20108;-58
2023/08/05 00:43:48;;;;;;;4.13;2.90;;;;;;;;;;5073544;28;20439;-58
2023/08/05 00:46:16;;;;;;;4.07;3.15;;;;;;;;;;5073751;28;20404;-58
2023/08/05 00:48:42;;;;;;;3.88;2.95;;;;;;;;;;5073894;28;20031;-58
2023/08/05 00:51:08;;;;;;;3.95;3.40;;;;;;;;;;5073592;28;20020;-58
2023/08/05 00:53:36;;;;;;;4.03;3.03;;;;;;;;;;5073908;28;20024;-58
2023/08/05 00:56:02;;;;;;;4.07;3.30;;;;;;;;;;5073120;28;20028;-58
2023/08/05 00:58:31;;;;;;;4.85;3.25;;;;;;;;;;5072781;28;20028;-58
2023/08/05 01:00:57;;;;;;;5.18;3.05;;;;;;;;;;5073067;28;20480;-58
2023/08/05 01:03:23;;;;;;;3.28;2.75;;;;;;;;;;5073084;28;20024;-58
2023/08/05 01:05:50;;;;;;;3.42;2.90;;;;;;;;;;5073289;28;20032;-58
2023/08/05 01:08:16;;;;;;;4.88;2.83;;;;;;;;;;5076936;28;20028;-58
2023/08/05 01:10:43;;;;;;;4.40;3.28;;;;;;;;;;5076978;28;20035;-58
2023/08/05 01:13:09;;;;;;;4.82;3.33;;;;;;;;;;5076593;28;20418;-58
2023/08/05 01:15:35;;;;;;;4.13;3.35;;;;;;;;;;5076804;28;20056;-58
2023/08/05 01:18:02;;;;;;;4.22;2.90;;;;;;;;;;5077091;28;20450;-58
2023/08/05 01:20:33;;;;;;;3.92;3.22;;;;;;;;;;5076587;28;20021;-58
2023/08/05 01:23:02;;;;;;;4.60;3.00;;;;;;;;;;5077037;28;20027;-58
2023/08/05 01:25:29;;;;;;;6.15;3.30;;;;;;;;;;5076640;28;20021;-58
2023/08/05 01:27:58;;;;;;;6.97;2.85;;;;;;;;;;5076598;28;20063;-58
2023/08/05 01:30:25;;;;;;;7.25;3.40;;;;;;;;;;5077091;28;20370;-58
2023/08/05 01:32:51;;;;;;;4.00;3.05;;;;;;;;;;5076538;28;20470;-58
2023/08/05 01:35:18;;;;;;;3.60;2.88;;;;;;;;;;5077004;28;20070;-58
2023/08/05 01:37:44;;;;;;;4.63;2.72;;;;;;;;;;5076924;28;20535;-58
2023/08/05 01:40:11;;;;;;;4.05;2.85;;;;;;;;;;5076392;28;20067;-58
2023/08/05 01:42:37;;;;;;;3.83;2.88;;;;;;;;;;5076328;28;20028;-59
2023/08/05 01:45:03;;;;;;;3.95;2.83;;;;;;;;;;5076755;28;20024;-58
2023/08/05 01:47:29;;;;;;;6.25;3.55;;;;;;;;;;5076170;28;20032;-58
2023/08/05 01:49:55;;;;;;;3.47;2.63;;;;;;;;;;5076275;28;20378;-58
2023/08/05 01:52:20;;;;;;;4.85;2.30;;;;;;;;;;5058986;28;20025;-58
2023/08/05 01:54:46;;;;;;;3.53;2.97;;;;;;;;;;5076569;28;20336;-58
2023/08/05 01:57:12;;;;;;;3.33;2.85;;;;;;;;;;5076331;28;20070;-58
2023/08/05 01:59:38;;;;;;;3.95;3.28;;;;;;;;;;5076623;28;20508;-58
2023/08/05 02:02:04;;;;;;;5.03;3.38;;;;;;;;;;5075993;28;20053;-58
2023/08/05 02:04:30;;;;;;;4.95;3.38;;;;;;;;;;5076243;28;20464;-58
2023/08/05 02:06:56;;;;;;;6.50;3.45;;;;;;;;;;5075783;28;20046;-58
2023/08/05 02:09:22;;;;;;;3.63;2.92;;;;;;;;;;5075541;28;20024;-58
2023/08/05 02:11:48;;;;;;;3.55;2.85;;;;;;;;;;5075533;28;20056;-58
2023/08/05 02:14:14;;;;;;;4.30;3.35;;;;;;;;;;5076211;28;20028;-58
2023/08/05 02:16:40;;;;;;;3.95;2.88;;;;;;;;;;5075699;28;20024;-58
2023/08/05 02:19:06;;;;;;;4.15;3.35;;;;;;;;;;5075628;28;20021;-58
2023/08/05 02:21:32;;;;;;;4.65;3.00;;;;;;;;;;5075654;28;20020;-58
2023/08/05 02:23:58;;;;;;;5.40;3.28;;;;;;;;;;5075533;28;20031;-58
2023/08/05 02:26:24;;;;;;;4.25;3.28;;;;;;;;;;5075508;28;20028;-58
2023/08/05 02:28:50;;;;;;;4.55;3.35;;;;;;;;;;5075685;28;20549;-58
2023/08/05 02:31:16;;;;;;;4.95;3.40;;;;;;;;;;5057922;28;20056;-58
2023/08/05 02:33:42;;;;;;;3.90;2.88;;;;;;;;;;5075298;28;20029;-58
2023/08/05 02:36:08;;;;;;;3.70;3.30;;;;;;;;;;5075278;28;20044;-58
2023/08/05 02:38:34;;;;;;;5.15;3.63;;;;;;;;;;5075601;28;20063;-58
2023/08/05 02:41:05;;;;;;;3.85;3.20;;;;;;;;;;5075185;28;20021;-58
2023/08/05 02:43:31;;;;;;;4.47;3.42;;;;;;;;;;5075128;28;20036;-58
2023/08/05 02:45:57;;;;;;;5.53;4.00;;;;;;;;;;5075121;28;20378;-58
2023/08/05 02:48:23;;;;;;;5.50;3.90;;;;;;;;;;5074668;28;20467;-58
2023/08/05 02:50:50;;;;;;;9.35;3.45;;;;;;;;;;5075158;28;20465;-58
2023/08/05 02:53:16;;;;;;;5.35;4.05;;;;;;;;;;5074947;28;20028;-58
2023/08/05 02:55:42;;;;;;;4.55;3.70;;;;;;;;;;5075506;28;20446;-58
2023/08/05 02:58:08;;;;;;;4.28;3.88;;;;;;;;;;5075376;28;20025;-58
2023/08/05 03:00:34;;;;;;;4.22;3.42;;;;;;;;;;5074683;28;20031;-58
2023/08/05 03:03:00;;;;;;;4.65;3.80;;;;;;;;;;5075422;28;20017;-58
2023/08/05 03:05:27;;;;;;;5.72;3.97;;;;;;;;;;5074889;28;20025;-58
2023/08/05 03:07:53;;;;;;;5.28;3.88;;;;;;;;;;5074814;28;20021;-58
2023/08/05 03:10:19;;;;;;;11.27;4.30;;;;;;;;;;5075127;28;20035;-58
2023/08/05 03:12:45;;;;;;;4.88;3.50;;;;;;;;;;5074425;28;20020;-58
2023/08/05 03:15:11;;;;;;;4.82;4.32;;;;;;;;;;5074628;28;20074;-58
2023/08/05 03:17:37;;;;;;;5.97;3.42;;;;;;;;;;5074692;28;20032;-58
2023/08/05 03:20:04;;;;;;;4.82;3.92;;;;;;;;;;5075154;28;20107;-58
2023/08/05 03:22:30;;;;;;;5.25;3.97;;;;;;;;;;5074468;28;20036;-58
2023/08/05 03:24:56;;;;;;;7.63;4.28;;;;;;;;;;5075029;28;20029;-58
2023/08/05 03:27:22;;;;;;;4.55;3.67;;;;;;;;;;5074579;28;20032;-58
2023/08/05 03:29:48;;;;;;;6.38;4.20;;;;;;;;;;5074085;28;20028;-58
2023/08/05 03:32:14;;;;;;;4.35;3.95;;;;;;;;;;5074386;28;20024;-58
2023/08/05 03:34:40;;;;;;;8.93;4.20;;;;;;;;;;5074047;28;20020;-58
2023/08/05 03:37:06;;;;;;;6.70;4.40;;;;;;;;;;5074497;28;20127;-58
2023/08/05 03:39:32;;;;;;;7.10;4.97;;;;;;;;;;5075423;28;20434;-57
2023/08/05 03:41:58;;;;;;;5.68;4.25;;;;;;;;;;5074845;28;20031;-58
2023/08/05 03:44:24;;;;;;;7.47;5.15;;;;;;;;;;5074240;28;20029;-58
2023/08/05 03:46:50;;;;;;;6.25;5.40;;;;;;;;;;5074379;28;20028;-58
2023/08/05 03:49:15;;;;;;;9.27;4.07;;;;;;;;;;5074201;28;20024;-58
2023/08/05 03:51:41;;;;;;;6.13;5.10;;;;;;;;;;5074145;28;20340;-58
2023/08/05 03:54:07;;;;;;;5.75;4.63;;;;;;;;;;5074531;28;20021;-58
2023/08/05 03:56:33;;;;;;;5.43;4.53;;;;;;;;;;5074792;28;20395;-60
2023/08/05 03:58:59;;;;;;;7.53;5.68;;;;;;;;;;5074755;28;20336;-58
2023/08/05 04:01:26;;;;;;;5.97;4.18;;;;;;;;;;5074275;28;20020;-58
2023/08/05 04:03:53;;;;;;;5.60;4.97;;;;;;;;;;5074411;28;20032;-58
2023/08/05 04:06:20;;;;;;;7.70;4.63;;;;;;;;;;5073442;28;20474;-58
2023/08/05 04:08:48;;;;;;;9.23;4.90;;;;;;;;;;5073778;28;20123;-58
2023/08/05 04:11:14;;;;;;;4.70;3.92;;;;;;;;;;5073738;28;20032;-58
2023/08/05 04:13:40;;;;;;;5.20;4.18;;;;;;;;;;5073766;28;20103;-58
2023/08/05 04:16:08;;;;;;;4.63;4.15;;;;;;;;;;5074267;28;20024;-58
2023/08/05 04:18:36;;;;;;;4.90;4.30;;;;;;;;;;5073702;28;20028;-58
2023/08/05 04:21:04;;;;;;;5.93;4.47;;;;;;;;;;5073628;28;20028;-58
2023/08/05 04:23:31;;;;;;;8.43;5.03;;;;;;;;;;5073637;28;20501;-58
2023/08/05 04:26:01;;;;;;;8.50;4.68;;;;;;;;;;5074135;28;20036;-59
2023/08/05 04:28:27;;;;;;;6.45;4.80;;;;;;;;;;5073537;28;20033;-58
2023/08/05 04:30:53;;;;;;;5.75;4.72;;;;;;;;;;5073616;28;20021;-58
2023/08/05 04:33:19;;;;;;;5.78;4.90;;;;;;;;;;5073503;28;20450;-58
2023/08/05 04:35:48;;;;;;;6.13;4.80;;;;;;;;;;5073530;28;20526;-58
2023/08/05 04:38:15;;;;;;;5.22;3.88;;;;;;;;;;5073403;28;20485;-58
2023/08/05 04:40:41;;;;;;;5.50;4.05;;;;;;;;;;5074002;28;20077;-58
2023/08/05 04:43:07;;;;;;;7.00;4.47;;;;;;;;;;5079776;28;20408;-58
2023/08/05 04:45:32;;;;;;;6.47;5.15;;;;;;;;;;5080305;28;20025;-58
2023/08/05 04:47:58;;;;;;;5.18;4.60;;;;;;;;;;5079917;28;20024;-58
2023/08/05 04:50:24;;;;;;;7.18;4.55;;;;;;;;;;5080083;28;20073;-58
2023/08/05 04:52:50;;;;;;;6.82;4.45;;;;;;;;;;5080327;28;20103;-58
2023/08/05 04:55:16;;;;;;;8.45;4.57;;;;;;;;;;5080068;28;20043;-58
2023/08/05 04:57:43;;;;;;;4.93;4.18;;;;;;;;;;5080481;28;20024;-58
2023/08/05 05:00:09;;;;;;;6.88;4.85;;;;;;;;;;5080311;28;20056;-58
2023/08/05 05:02:35;;;;;;;6.65;4.30;;;;;;;;;;5080239;28;20340;-58
2023/08/05 05:05:01;;;;;;;7.63;4.35;;;;;;;;;;5080006;28;20031;-58
2023/08/05 05:07:27;;;;;;;8.00;4.97;;;;;;;;;;5079819;28;20416;-58
2023/08/05 05:09:53;;;;;;;5.15;4.32;;;;;;;;;;5080478;28;20036;-58
2023/08/05 05:12:19;;;;;;;5.85;4.80;;;;;;;;;;5062118;28;20347;-58
2023/08/05 05:14:46;;;;;;;9.23;5.07;;;;;;;;;;5080190;28;20055;-58
2023/08/05 05:17:16;;;;;;;5.57;4.00;;;;;;;;;;5079476;28;20170;-58
2023/08/05 05:19:42;;;;;;;5.22;4.10;;;;;;;;;;5080349;28;20028;-58
2023/08/05 05:22:08;;;;;;;4.78;4.15;;;;;;;;;;5080072;28;20029;-58
2023/08/05 05:24:34;;;;;;;7.47;4.53;;;;;;;;;;5079721;28;20032;-58
2023/08/05 05:27:00;;;;;;;5.93;4.95;;;;;;;;;;5079839;28;20028;-58
2023/08/05 05:29:27;;;;;;;5.90;4.63;;;;;;;;;;5080256;28;20035;-58
2023/08/05 05:31:52;;;;;;;5.95;4.35;;;;;;;;;;5079562;28;20025;-58
2023/08/05 05:34:18;;;;;;;5.03;3.95;;;;;;;;;;5079702;28;20470;-58
2023/08/05 05:36:44;;;;;;;4.43;3.42;;;;;;;;;;5079790;28;20071;-58
2023/08/05 05:39:10;;;;;;;5.38;3.78;;;;;;;;;;5080566;28;20477;-58
2023/08/05 05:41:36;;;;;;;5.45;4.07;;;;;;;;;;5079624;28;20028;-58
2023/08/05 05:44:04;;;;;;;5.85;4.15;;;;;;;;;;5079521;28;20364;-58
2023/08/05 05:46:32;;;;;;;7.10;4.03;;;;;;;;;;5079467;28;20100;-58
2023/08/05 05:48:57;;;;;;;7.40;3.67;;;;;;;;;;5079555;28;20115;-58
2023/08/05 05:51:23;;;;;;;4.55;4.10;;;;;;;;;;5079473;28;20056;-58
2023/08/05 05:53:54;;;;;;;6.50;4.35;;;;;;;;;;5075896;28;20055;-58
2023/08/05 05:56:20;;;;;;;6.15;3.92;;;;;;;;;;5076878;28;20351;-59
2023/08/05 05:58:46;;;;;;;5.95;4.22;;;;;;;;;;5076340;28;20032;-58
2023/08/05 06:01:13;;;;;;;4.22;3.72;;;;;;;;;;5076268;28;20028;-58
2023/08/05 06:03:40;;;;;;;4.15;3.58;;;;;;;;;;5076161;28;20025;-58
2023/08/05 06:06:06;;;;;;;6.25;4.32;;;;;;;;;;5076582;28;20039;-58
2023/08/05 06:08:34;;;;;;;5.13;3.72;;;;;;;;;;5076364;28;20029;-60
2023/08/05 06:11:04;;;;;;;4.40;3.65;;;;;;;;;;5058297;28;20432;-58
2023/08/05 06:13:30;;;;;;;4.85;3.65;;;;;;;;;;5076275;28;20021;-59
2023/08/05 06:15:56;;;;;;;5.13;3.47;;;;;;;;;;5076278;28;20078;-59
2023/08/05 06:18:22;;;;;;;6.45;4.25;;;;;;;;;;5076406;28;20016;-59
2023/08/05 06:20:48;;;;;;;4.85;4.07;;;;;;;;;;5076415;28;20024;-59
2023/08/05 06:23:14;;;;;;;5.30;3.70;;;;;;;;;;5076261;28;20024;-59
2023/08/05 06:25:41;;;;;;;5.60;3.60;;;;;;;;;;5075841;28;20021;-59
2023/08/05 06:28:07;;;;;;;7.40;3.13;;;;;;;;;;5076222;28;20457;-59
2023/08/05 06:30:34;;;;;;;3.95;2.45;;;;;;;;;;5076183;28;20070;-59
2023/08/05 06:33:00;;;;;;;3.58;2.85;;;;;;;;;;5075627;28;20052;-59
2023/08/05 06:35:26;;;;;;;6.18;3.17;;;;;;;;;;5075346;28;20028;-59
2023/08/05 06:37:52;;;;;;;3.90;2.53;;;;;;;;;;5075690;28;20080;-59
2023/08/05 06:40:18;;;;;;;4.20;2.92;;;;;;;;;;5075536;28;20031;-59
2023/08/05 06:42:44;;;;;;;4.35;2.75;;;;;;;;;;5075420;28;20034;-59
2023/08/05 06:45:10;;;;;;;4.28;2.75;;;;;;;;;;5075927;28;20031;-59
2023/08/05 06:47:36;;;;;;;3.30;2.50;;;;;;;;;;5057709;28;20029;-59
2023/08/05 06:50:06;;;;;;;4.00;3.28;;;;;;;;;;5075776;28;20036;-59
2023/08/05 06:52:32;;;;;;;4.18;2.75;;;;;;;;;;5075160;28;20013;-59
2023/08/05 06:55:00;;;;;;;3.33;2.42;;;;;;;;;;5075193;28;20052;-60
2023/08/05 06:57:26;;;;;;;3.60;2.67;;;;;;;;;;5074701;28;20021;-59
2023/08/05 06:59:52;;;;;;;3.13;2.10;;;;;;;;;;5075564;28;20028;-59
2023/08/05 07:02:18;;;;;;;4.00;2.72;;;;;;;;;;5075204;28;20031;-59
2023/08/05 07:04:44;;;;;;;4.57;2.95;;;;;;;;;;5074510;28;20100;-59
2023/08/05 07:07:11;;;;;;;6.88;3.03;;;;;;;;;;5074851;28;20028;-59
2023/08/05 07:09:37;;;;;;;3.38;2.60;;;;;;;;;;5075125;28;20082;-59
2023/08/05 07:12:03;;;;;;;3.42;2.30;;;;;;;;;;5075333;28;20473;-60
2023/08/05 07:14:29;;;;;;;3.65;2.33;;;;;;;;;;5075331;28;20042;-59
2023/08/05 07:16:55;;;;;;;4.20;2.63;;;;;;;;;;5075048;28;20374;-59
2023/08/05 07:19:20;;;;;;;3.13;2.50;;;;;;;;;;5075367;28;20025;-60
2023/08/05 07:21:46;;;;;;;4.38;2.72;;;;;;;;;;5057753;28;20017;-59
2023/08/05 07:24:12;;;;;;;4.70;2.83;;;;;;;;;;5074912;28;20332;-59
2023/08/05 07:26:38;;;;;;;3.28;2.65;;;;;;;;;;5074484;28;20408;-59
2023/08/05 07:29:04;;;;;;;6.60;3.10;;;;;;;;;;5075085;28;20079;-59
2023/08/05 07:31:30;;;;;;;6.60;2.67;;;;;;;;;;5074799;28;20103;-59
2023/08/05 07:33:56;;;;;;;4.00;2.75;;;;;;;;;;5074461;28;20047;-59
2023/08/05 07:36:22;;;;;;;3.13;2.38;;;;;;;;;;5073959;28;20090;-59
2023/08/05 07:38:50;;;;;;;2.65;2.10;;;;;;;;;;5074227;28;20044;-60
2023/08/05 07:41:16;;;;;;;4.68;2.25;;;;;;;;;;5074275;28;20025;-59
2023/08/05 07:43:43;;;;;;;3.10;2.58;;;;;;;;;;5074679;28;20344;-60
2023/08/05 07:46:12;;;;;;;3.38;2.47;;;;;;;;;;5074192;28;20025;-59
2023/08/05 07:48:39;;;;;;;3.30;2.50;;;;;;;;;;5074487;28;20041;-59
2023/08/05 07:51:08;;;;;;;4.57;2.20;;;;;;;;;;5073636;28;20459;-59
2023/08/05 07:53:38;;;;;;;2.85;2.40;;;;;;;;;;5074096;28;20025;-59
2023/08/05 07:56:14;;;;;;;3.47;2.55;;;;;;;;;;5055600;28;20027;-59
2023/08/05 07:58:42;;;;;;;3.88;3.00;;;;;;;;;;5074060;28;20035;-59
2023/08/05 08:01:08;;;;;;;4.40;2.60;;;;;;;;;;5073628;28;20115;-59
2023/08/05 08:03:34;;;;;;;3.35;2.72;;;;;;;;;;5073964;28;20024;-60
2023/08/05 08:06:00;;;;;;;3.58;2.47;;;;;;;;;;5073723;28;20024;-60
2023/08/05 08:08:26;;;;;;;3.85;2.33;;;;;;;;;;5074199;28;20025;-59
2023/08/05 08:10:52;;;;;;;3.40;2.10;;;;;;;;;;5074371;28;20036;-59
2023/08/05 08:13:18;;;;;;;5.82;2.42;;;;;;;;;;5074209;28;20036;-59
2023/08/05 08:15:44;;;;;;;3.80;2.13;;;;;;;;;;5074032;28;20343;-59
2023/08/05 08:18:10;;;;;;;3.20;2.33;;;;;;;;;;5073572;28;20032;-59
2023/08/05 08:20:36;;;;;;;3.97;2.53;;;;;;;;;;5073599;28;20131;-59
2023/08/05 08:23:02;;;;;;;2.78;2.17;;;;;;;;;;5074364;28;20074;-59
2023/08/05 08:25:28;;;;;;;3.75;2.80;;;;;;;;;;5073621;28;20028;-59
2023/08/05 08:27:54;;;;;;;3.97;2.13;;;;;;;;;;5073454;28;20020;-59
2023/08/05 08:30:20;;;;;;;3.30;2.28;;;;;;;;;;5073899;28;20086;-59
2023/08/05 08:32:46;;;;;;;3.70;2.05;;;;;;;;;;5073459;28;20032;-59
2023/08/05 08:35:12;;;;;;;3.78;2.10;;;;;;;;;;5073271;28;20028;-59
2023/08/05 08:37:38;;;;;;;2.70;2.13;;;;;;;;;;5074390;28;20052;-59
2023/08/05 08:40:04;;;;;;;2.88;2.40;;;;;;;;;;5073848;28;20141;-59
2023/08/05 08:42:31;;;;;;;3.15;2.35;;;;;;;;;;5073300;28;20041;-60
2023/08/05 08:44:59;;;;;;;4.70;1.63;;;;;;;;;;5073352;28;20085;-60
2023/08/05 08:47:25;;;;;;;3.10;2.05;;;;;;;;;;5073032;28;20032;-60
2023/08/05 08:49:53;;;;;;;3.40;2.22;;;;;;;;;;5073647;28;20100;-60
2023/08/05 08:52:20;;;;;;;3.13;1.92;;;;;;;;;;5072870;28;20032;-60
2023/08/05 08:54:46;;;;;;;3.45;2.13;;;;;;;;;;5072906;28;20029;-60
2023/08/05 08:57:13;;;;;;;3.88;2.35;;;;;;;;;;5073270;28;20027;-60
2023/08/05 08:59:42;;;;;;;2.95;1.95;;;;;;;;;;5073797;28;20380;-61
2023/08/05 09:02:11;;;;;;;2.90;2.28;;;;;;;;;;5073787;28;20078;-59
2023/08/05 09:04:39;;;;;;;2.22;1.52;;;;;;;;;;5073198;28;20063;-60
2023/08/05 09:07:05;;;;;;;3.80;1.70;;;;;;;;;;5073601;28;20111;-60
2023/08/05 09:09:31;;;;;;;3.00;2.08;;;;;;;;;;5073307;28;20131;-60
2023/08/05 09:11:58;;;;;;;4.78;2.30;;;;;;;;;;5072972;28;20021;-59
2023/08/05 09:14:24;;;;;;;2.95;2.33;;;;;;;;;;5073035;28;20024;-59
2023/08/05 09:17:00;;;;;;;3.03;1.95;;;;;;;;;;5072966;28;20077;-59
2023/08/05 09:19:26;;;;;;;2.78;1.90;;;;;;;;;;5073303;28;20067;-59
2023/08/05 09:21:53;;;;;;;5.05;2.30;;;;;;;;;;5072594;28;20370;-60
2023/08/05 09:24:25;;;;;;;3.78;1.75;;;;;;;;;;5072649;28;20493;-59
2023/08/05 09:26:58;;;;;;;2.95;1.85;;;;;;;;;;5072663;28;20062;-59
2023/08/05 09:29:24;;;;;;;3.45;1.90;;;;;;;;;;5076013;28;20025;-59
2023/08/05 09:31:56;;;;;;;3.42;2.03;;;;;;;;;;5076729;28;20370;-59
2023/08/05 09:34:35;;;;;;;4.10;1.77;;;;;;;;;;5076719;28;20031;-59
2023/08/05 09:37:02;;;;;;;4.85;1.60;;;;;;;;;;5076494;28;20078;-59
2023/08/05 09:39:47;;;;;;;2.53;1.40;;;;;;;;;;5077637;28;20031;-59
2023/08/05 09:42:19;;;;;;;2.33;1.77;;;;;;;;;;5076500;28;20017;-59
2023/08/05 09:44:45;;;;;;;2.67;1.55;;;;;;;;;;5076418;28;20355;-59
2023/08/05 09:47:14;;;;;;;3.40;1.95;;;;;;;;;;5076830;28;20036;-59
2023/08/05 09:49:42;;;;;;;2.60;1.90;;;;;;;;;;5077083;28;20028;-59
2023/08/05 09:52:09;;;;;;;2.58;1.55;;;;;;;;;;5076560;28;20024;-59
2023/08/05 09:54:36;;;;;;;3.60;2.08;;;;;;;;;;5077104;28;20056;-59
2023/08/05 09:57:03;;;;;;;3.20;1.55;;;;;;;;;;5076269;28;20028;-59
2023/08/05 09:59:29;;;;;;;2.38;1.65;;;;;;;;;;5076721;28;20025;-59
2023/08/05 10:01:56;;;;;;;3.75;1.00;;;;;;;;;;5076672;28;20048;-59
2023/08/05 10:04:23;;;;;;;2.72;1.30;;;;;;;;;;5076617;28;20063;-60
2023/08/05 10:06:50;;;;;;;2.17;1.42;;;;;;;;;;5076026;28;20108;-58
2023/08/05 10:09:16;;;;;;;1.50;0.90;;;;;;;;;;5076049;28;20092;-58
2023/08/05 10:11:42;;;;;;;2.30;1.20;;;;;;;;;;5076621;28;20031;-58
2023/08/05 10:14:09;;;;;;;2.40;1.58;;;;;;;;;;5075938;28;20115;-58
2023/08/05 10:16:37;;;;;;;2.17;1.52;;;;;;;;;;5075910;28;20417;-58
2023/08/05 10:19:03;;;;;;;1.92;1.20;;;;;;;;;;5076720;28;20028;-58
2023/08/05 10:21:36;;;;;;;2.88;1.90;;;;;;;;;;5075698;28;20457;-58
2023/08/05 10:24:03;;;;;;;1.92;1.33;;;;;;;;;;5076068;28;20033;-58
2023/08/05 10:26:37;;;;;;;1.85;1.00;;;;;;;;;;5075178;28;20026;-58
2023/08/05 10:29:23;;;;;;;2.22;1.05;;;;;;;;;;5075640;28;20099;-58
2023/08/05 10:31:49;;;;;;;3.10;1.25;;;;;;;;;;5075253;28;20466;-58
2023/08/05 10:34:19;;;;;;;1.80;1.00;;;;;;;;;;5075533;28;20032;-58
2023/08/05 10:36:46;;;;;;;2.33;1.20;;;;;;;;;;5075565;28;20110;-58
2023/08/05 10:39:30;;;;;;;2.25;1.58;;;;;;;;;;5075547;28;20182;-58
2023/08/05 10:41:56;;;;;;;1.75;1.13;;;;;;;;;;5075249;28;20024;-58
2023/08/05 10:44:34;;;;;;;2.85;1.52;;;;;;;;;;5075792;28;20065;-58
2023/08/05 10:47:03;;;;;;;2.50;1.20;;;;;;;;;;5075568;28;20062;-58
2023/08/05 10:49:29;;;;;;;2.38;1.40;;;;;;;;;;5075411;28;20115;-58
2023/08/05 10:51:55;;;;;;;2.30;1.40;;;;;;;;;;5074919;28;20063;-58
2023/08/05 10:54:21;;;;;;;1.83;1.17;;;;;;;;;;5075499;28;20025;-58
2023/08/05 10:56:47;;;;;;;1.95;1.40;;;;;;;;;;5075193;28;20472;-58
2023/08/05 10:59:14;;;;;;;1.88;1.17;;;;;;;;;;5075047;28;20024;-58
2023/08/05 11:01:53;;;;;;;2.13;1.17;;;;;;;;;;5075067;28;20027;-58
2023/08/05 11:04:32;;;;;;;2.08;1.27;;;;;;;;;;5075479;28;20107;-58
2023/08/05 11:07:00;;;;;;;2.40;1.48;;;;;;;;;;5075040;28;20056;-58
2023/08/05 11:09:32;;;;;;;2.00;1.40;;;;;;;;;;5075138;28;20052;-58
2023/08/05 11:11:59;;;;;;;3.55;1.42;;;;;;;;;;5075061;28;20115;-58
2023/08/05 11:14:27;;;;;;;2.13;1.30;;;;;;;;;;5074567;28;20021;-58
2023/08/05 11:17:00;;;;;;;2.08;1.17;;;;;;;;;;5074319;28;20037;-58
2023/08/05 11:19:26;;;;;;;1.95;1.00;;;;;;;;;;5075260;28;20020;-58
2023/08/05 11:21:52;;;;;;;2.33;1.58;;;;;;;;;;5074586;28;20104;-58
2023/08/05 11:24:18;;;;;;;2.17;1.48;;;;;;;;;;5075219;28;20119;-58
2023/08/05 11:26:44;;;;;;;2.20;1.10;;;;;;;;;;5074454;28;20020;-58
2023/08/05 11:29:10;;;;;;;2.35;1.52;;;;;;;;;;5074235;28;20048;-58
2023/08/05 11:31:36;;;;;;;4.80;1.45;;;;;;;;;;5074863;28;20362;-58
2023/08/05 11:34:02;;;;;;;2.35;1.33;;;;;;;;;;5074437;28;20013;-58
2023/08/05 11:36:29;;;;;;;2.08;1.38;;;;;;;;;;5074729;28;20051;-58
2023/08/05 11:39:00;;;;;;;1.70;0.95;;;;;;;;;;5074263;28;20024;-58
2023/08/05 11:41:26;;;;;;;2.22;1.40;;;;;;;;;;5074857;28;20039;-60
2023/08/05 11:43:52;;;;;;;3.00;1.35;;;;;;;;;;5074834;28;20102;-59
2023/08/05 11:46:27;;;;;;;2.60;1.60;;;;;;;;;;5074750;28;20063;-59
2023/08/05 11:49:09;;;;;;;3.03;1.42;;;;;;;;;;5074117;28;20533;-59
2023/08/05 11:51:51;;;;;;;2.67;1.55;;;;;;;;;;5073331;28;20459;-59
2023/08/05 11:54:34;;;;;;;2.50;1.60;;;;;;;;;;5074087;28;20035;-59
2023/08/05 11:57:00;;;;;;;1.77;1.17;;;;;;;;;;5074336;28;20020;-59
2023/08/05 11:59:38;;;;;;;2.10;1.10;;;;;;;;;;5074110;28;20051;-59
2023/08/05 12:02:05;;;;;;;2.10;1.45;;;;;;;;;;5073937;28;20024;-59
2023/08/05 12:04:31;;;;;;;2.80;1.60;;;;;;;;;;5073947;28;20033;-59
2023/08/05 12:06:57;;;;;;;2.28;1.38;;;;;;;;;;5074086;28;20074;-59
2023/08/05 12:09:23;;;;;;;4.30;1.42;;;;;;;;;;5074245;28;20111;-59
2023/08/05 12:11:55;;;;;;;3.10;1.48;;;;;;;;;;5073798;28;20035;-59
2023/08/05 12:14:21;;;;;;;3.00;1.90;;;;;;;;;;5074640;28;20074;-59
2023/08/05 12:16:48;;;;;;;3.13;1.33;;;;;;;;;;5073787;28;20025;-59
2023/08/05 12:19:15;;;;;;;2.85;1.80;;;;;;;;;;5074254;28;20074;-59
2023/08/05 12:21:41;;;;;;;3.03;1.98;;;;;;;;;;5074181;28;20025;-59
2023/08/05 12:24:07;;;;;;;2.83;1.55;;;;;;;;;;5073712;28;20100;-59
2023/08/05 12:26:33;;;;;;;2.65;2.00;;;;;;;;;;5073724;28;20052;-59
2023/08/05 12:28:58;;;;;;;2.13;1.45;;;;;;;;;;5073875;28;20028;-59
2023/08/05 12:31:24;;;;;;;2.47;1.70;;;;;;;;;;5055172;28;20059;-59
2023/08/05 12:33:50;;;;;;;2.08;1.10;;;;;;;;;;5073772;28;20024;-59
2023/08/05 12:36:16;;;;;;;2.53;1.17;;;;;;;;;;5073198;28;20059;-59
2023/08/05 12:38:42;;;;;;;3.60;1.70;;;;;;;;;;5073621;28;20343;-59
2023/08/05 12:41:08;;;;;;;2.33;1.40;;;;;;;;;;5073768;28;20024;-59
2023/08/05 12:43:34;;;;;;;1.92;1.08;;;;;;;;;;5073493;28;20027;-59
2023/08/05 12:46:00;;;;;;;2.17;1.48;;;;;;;;;;5073476;28;20029;-60
2023/08/05 12:48:26;;;;;;;2.70;1.75;;;;;;;;;;5073398;28;20031;-59
2023/08/05 12:50:52;;;;;;;2.92;1.50;;;;;;;;;;5073879;28;20021;-59
2023/08/05 12:53:18;;;;;;;1.95;1.10;;;;;;;;;;5073367;28;20021;-59
2023/08/05 12:55:44;;;;;;;4.50;1.83;;;;;;;;;;5073898;28;20357;-59
2023/08/05 12:58:10;;;;;;;2.20;1.30;;;;;;;;;;5073286;28;20494;-59
2023/08/05 13:00:36;;;;;;;2.78;1.55;;;;;;;;;;5073426;28;20146;-59
2023/08/05 13:03:02;;;;;;;2.33;1.75;;;;;;;;;;5076066;28;20362;-59
2023/08/05 13:05:28;;;;;;;2.40;1.55;;;;;;;;;;5077353;28;20497;-59
2023/08/05 13:07:54;;;;;;;2.20;1.40;;;;;;;;;;5077183;28;20064;-59
2023/08/05 13:10:20;;;;;;;2.28;1.40;;;;;;;;;;5077323;28;20055;-59
2023/08/05 13:12:46;;;;;;;2.40;1.63;;;;;;;;;;5077652;28;20374;-59
2023/08/05 13:15:12;;;;;;;4.72;1.60;;;;;;;;;;5077429;28;20048;-59
2023/08/05 13:17:38;;;;;;;3.05;1.67;;;;;;;;;;5077053;28;20115;-59
2023/08/05 13:20:05;;;;;;;3.05;1.50;;;;;;;;;;5077337;28;20027;-59
2023/08/05 13:22:30;;;;;;;2.55;1.40;;;;;;;;;;5077734;28;20070;-59
2023/08/05 13:24:59;;;;;;;2.10;1.40;;;;;;;;;;5076907;28;20100;-59
2023/08/05 13:27:25;;;;;;;2.35;1.70;;;;;;;;;;5076722;28;20060;-59
2023/08/05 13:29:51;;;;;;;3.28;2.10;;;;;;;;;;5077415;28;20029;-59
2023/08/05 13:32:17;;;;;;;2.55;1.92;;;;;;;;;;5076635;28;20024;-59
2023/08/05 13:34:43;;;;;;;1.73;1.20;;;;;;;;;;5076643;28;20113;-59
2023/08/05 13:37:09;;;;;;;5.13;2.15;;;;;;;;;;5077131;28;20059;-59
2023/08/05 13:39:35;;;;;;;3.95;2.03;;;;;;;;;;5077203;28;20017;-59
2023/08/05 13:42:01;;;;;;;3.13;2.05;;;;;;;;;;5077081;28;20020;-59
2023/08/05 13:44:27;;;;;;;2.17;1.63;;;;;;;;;;5076562;28;20052;-59
2023/08/05 13:46:53;;;;;;;2.53;1.63;;;;;;;;;;5076456;28;20453;-59
2023/08/05 13:49:19;;;;;;;2.30;1.40;;;;;;;;;;5076525;28;20083;-59
2023/08/05 13:51:47;;;;;;;3.15;1.83;;;;;;;;;;5076126;28;20033;-59
2023/08/05 13:54:13;;;;;;;2.67;1.55;;;;;;;;;;5076918;28;20401;-59
2023/08/05 13:56:39;;;;;;;2.80;1.58;;;;;;;;;;5077067;28;20455;-59
2023/08/05 13:59:05;;;;;;;4.95;1.60;;;;;;;;;;5076577;28;20035;-59
2023/08/05 14:01:31;;;;;;;2.05;1.38;;;;;;;;;;5076011;28;20473;-59
2023/08/05 14:03:58;;;;;;;2.80;1.60;;;;;;;;;;5076181;28;20527;-59
2023/08/05 14:06:25;;;;;;;2.35;1.85;;;;;;;;;;5076487;28;20112;-58
2023/08/05 14:08:51;;;;;;;4.57;1.88;;;;;;;;;;5076301;28;20454;-59
2023/08/05 14:11:17;;;;;;;2.63;1.63;;;;;;;;;;5076579;28;20065;-59
2023/08/05 14:13:43;;;;;;;2.70;1.80;;;;;;;;;;5075348;28;20370;-59
2023/08/05 14:16:09;;;;;;;2.58;1.50;;;;;;;;;;5057989;28;20132;-59
2023/08/05 14:18:35;;;;;;;2.03;1.50;;;;;;;;;;5076438;28;20025;-59
2023/08/05 14:21:02;;;;;;;2.60;1.52;;;;;;;;;;5075663;28;20496;-59
2023/08/05 14:23:28;;;;;;;2.45;1.55;;;;;;;;;;5076343;28;20040;-59
2023/08/05 14:25:54;;;;;;;2.55;1.67;;;;;;;;;;5076078;28;20020;-59
2023/08/05 14:28:22;;;;;;;2.42;1.75;;;;;;;;;;5076084;28;20032;-59
2023/08/05 14:30:48;;;;;;;2.40;1.70;;;;;;;;;;5076239;28;20051;-59
2023/08/05 14:33:14;;;;;;;2.05;1.17;;;;;;;;;;5075529;28;20035;-59
2023/08/05 14:35:39;;;;;;;3.05;1.45;;;;;;;;;;5075399;28;20091;-59
2023/08/05 14:38:05;;;;;;;2.58;1.60;;;;;;;;;;5076107;28;20111;-59
2023/08/05 14:40:32;;;;;;;2.85;1.92;;;;;;;;;;5076094;28;20048;-59
2023/08/05 14:42:58;;;;;;;3.00;1.63;;;;;;;;;;5075981;28;20029;-59